sensor_id;sensor_type;location;lat;lon;timestamp;P1;durP1;ratioP1;P2;durP2;ratioP2
38435;SDS011;24220;48.168;14.024;2023-05-10T00:00:42;4.68;;;3.35;;
38435;SDS011;24220;48.168;14.024;2023-05-10T00:03:12;4.78;;;3.72;;
38435;SDS011;24220;48.168;14.024;2023-05-10T00:05:39;4.65;;;3.60;;
38435;SDS011;24220;48.168;14.024;2023-05-10T00:08:07;4.68;;;4.20;;
38435;SDS011;24220;48.168;14.024;2023-05-10T00:10:36;4.05;;;3.65;;
38435;SDS011;24220;48.168;14.024;2023-05-10T00:13:04;4.00;;;3.60;;
38435;SDS011;24220;48.168;14.024;2023-05-10T00:15:34;4.22;;;3.83;;
38435;SDS011;24220;48.168;14.024;2023-05-10T00:18:01;4.25;;;3.85;;
38435;SDS011;24220;48.168;14.024;2023-05-10T00:20:32;4.03;;;3.63;;
38435;SDS011;24220;48.168;14.024;2023-05-10T00:22:59;5.55;;;4.05;;
38435;SDS011;24220;48.168;14.024;2023-05-10T00:25:29;4.18;;;3.78;;
38435;SDS011;24220;48.168;14.024;2023-05-10T00:27:57;4.40;;;3.33;;
38435;SDS011;24220;48.168;14.024;2023-05-10T00:30:30;4.75;;;3.90;;
38435;SDS011;24220;48.168;14.024;2023-05-10T00:32:58;4.90;;;3.78;;
38435;SDS011;24220;48.168;14.024;2023-05-10T00:37:56;4.15;;;3.75;;
38435;SDS011;24220;48.168;14.024;2023-05-10T00:40:23;4.43;;;3.70;;
38435;SDS011;24220;48.168;14.024;2023-05-10T00:42:51;4.07;;;3.67;;
38435;SDS011;24220;48.168;14.024;2023-05-10T00:45:19;4.25;;;3.65;;
38435;SDS011;24220;48.168;14.024;2023-05-10T00:47:46;5.38;;;4.00;;
38435;SDS011;24220;48.168;14.024;2023-05-10T00:50:14;4.53;;;3.72;;
38435;SDS011;24220;48.168;14.024;2023-05-10T00:52:42;3.70;;;3.40;;
38435;SDS011;24220;48.168;14.024;2023-05-10T00:55:14;4.38;;;3.65;;
38435;SDS011;24220;48.168;14.024;2023-05-10T00:57:47;3.80;;;3.50;;
38435;SDS011;24220;48.168;14.024;2023-05-10T01:00:14;3.58;;;3.28;;
38435;SDS011;24220;48.168;14.024;2023-05-10T01:02:45;4.35;;;3.95;;
38435;SDS011;24220;48.168;14.024;2023-05-10T01:05:13;4.40;;;4.00;;
38435;SDS011;24220;48.168;14.024;2023-05-10T01:07:43;5.63;;;3.90;;
38435;SDS011;24220;48.168;14.024;2023-05-10T01:10:10;4.60;;;4.20;;
38435;SDS011;24220;48.168;14.024;2023-05-10T01:12:41;6.03;;;3.80;;
38435;SDS011;24220;48.168;14.024;2023-05-10T01:15:10;4.13;;;3.38;;
38435;SDS011;24220;48.168;14.024;2023-05-10T01:17:42;4.40;;;3.70;;
38435;SDS011;24220;48.168;14.024;2023-05-10T01:20:15;3.85;;;3.25;;
38435;SDS011;24220;48.168;14.024;2023-05-10T01:29:46;3.85;;;3.45;;
38435;SDS011;24220;48.168;14.024;2023-05-10T01:34:48;5.32;;;4.00;;
38435;SDS011;24220;48.168;14.024;2023-05-10T01:37:28;4.20;;;3.80;;
38435;SDS011;24220;48.168;14.024;2023-05-10T01:40:19;4.35;;;3.95;;
38435;SDS011;24220;48.168;14.024;2023-05-10T01:42:53;5.97;;;4.53;;
38435;SDS011;24220;48.168;14.024;2023-05-10T01:45:29;4.57;;;4.18;;
38435;SDS011;24220;48.168;14.024;2023-05-10T01:48:06;5.72;;;5.13;;
38435;SDS011;24220;48.168;14.024;2023-05-10T01:50:39;6.32;;;5.30;;
38435;SDS011;24220;48.168;14.024;2023-05-10T01:53:10;6.05;;;4.82;;
38435;SDS011;24220;48.168;14.024;2023-05-10T01:55:41;4.95;;;4.10;;
38435;SDS011;24220;48.168;14.024;2023-05-10T01:58:13;4.30;;;3.90;;
38435;SDS011;24220;48.168;14.024;2023-05-10T02:00:46;4.43;;;4.03;;
38435;SDS011;24220;48.168;14.024;2023-05-10T02:03:16;4.32;;;3.92;;
38435;SDS011;24220;48.168;14.024;2023-05-10T02:05:48;6.63;;;4.28;;
38435;SDS011;24220;48.168;14.024;2023-05-10T02:08:17;5.22;;;4.30;;
38435;SDS011;24220;48.168;14.024;2023-05-10T02:10:47;5.63;;;4.53;;
38435;SDS011;24220;48.168;14.024;2023-05-10T02:13:18;7.22;;;4.43;;
38435;SDS011;24220;48.168;14.024;2023-05-10T02:15:49;4.70;;;4.05;;
38435;SDS011;24220;48.168;14.024;2023-05-10T02:18:20;4.30;;;3.90;;
38435;SDS011;24220;48.168;14.024;2023-05-10T02:20:53;5.00;;;3.95;;
38435;SDS011;24220;48.168;14.024;2023-05-10T02:23:23;4.47;;;4.07;;
38435;SDS011;24220;48.168;14.024;2023-05-10T02:25:51;4.63;;;3.75;;
38435;SDS011;24220;48.168;14.024;2023-05-10T02:28:21;5.45;;;4.50;;
38435;SDS011;24220;48.168;14.024;2023-05-10T02:30:50;6.28;;;4.47;;
38435;SDS011;24220;48.168;14.024;2023-05-10T02:33:19;6.85;;;4.47;;
38435;SDS011;24220;48.168;14.024;2023-05-10T02:35:49;4.78;;;4.28;;
38435;SDS011;24220;48.168;14.024;2023-05-10T02:38:18;5.72;;;5.13;;
38435;SDS011;24220;48.168;14.024;2023-05-10T02:40:48;4.80;;;4.23;;
38435;SDS011;24220;48.168;14.024;2023-05-10T02:43:18;5.30;;;4.80;;
38435;SDS011;24220;48.168;14.024;2023-05-10T02:45:47;4.97;;;4.15;;
38435;SDS011;24220;48.168;14.024;2023-05-10T02:48:17;5.03;;;4.38;;
38435;SDS011;24220;48.168;14.024;2023-05-10T02:50:45;6.22;;;4.45;;
38435;SDS011;24220;48.168;14.024;2023-05-10T02:53:22;4.82;;;4.32;;
38435;SDS011;24220;48.168;14.024;2023-05-10T02:55:57;5.00;;;4.50;;
38435;SDS011;24220;48.168;14.024;2023-05-10T02:58:28;6.00;;;4.88;;
38435;SDS011;24220;48.168;14.024;2023-05-10T03:00:55;5.10;;;4.60;;
38435;SDS011;24220;48.168;14.024;2023-05-10T03:03:25;5.65;;;4.63;;
38435;SDS011;24220;48.168;14.024;2023-05-10T03:05:52;5.05;;;4.50;;
38435;SDS011;24220;48.168;14.024;2023-05-10T03:08:23;3.92;;;3.63;;
38435;SDS011;24220;48.168;14.024;2023-05-10T03:10:55;6.38;;;4.75;;
38435;SDS011;24220;48.168;14.024;2023-05-10T03:16:03;6.32;;;5.20;;
38435;SDS011;24220;48.168;14.024;2023-05-10T03:18:48;5.60;;;4.95;;
38435;SDS011;24220;48.168;14.024;2023-05-10T03:21:28;6.20;;;4.60;;
38435;SDS011;24220;48.168;14.024;2023-05-10T03:24:01;5.40;;;4.90;;
38435;SDS011;24220;48.168;14.024;2023-05-10T03:26:34;5.20;;;4.70;;
38435;SDS011;24220;48.168;14.024;2023-05-10T03:29:05;5.55;;;5.05;;
38435;SDS011;24220;48.168;14.024;2023-05-10T03:31:34;6.05;;;5.25;;
38435;SDS011;24220;48.168;14.024;2023-05-10T03:34:03;5.93;;;5.10;;
38435;SDS011;24220;48.168;14.024;2023-05-10T03:36:31;5.35;;;4.40;;
38435;SDS011;24220;48.168;14.024;2023-05-10T03:38:58;6.82;;;5.32;;
38435;SDS011;24220;48.168;14.024;2023-05-10T03:41:28;5.28;;;4.38;;
38435;SDS011;24220;48.168;14.024;2023-05-10T03:43:56;5.55;;;4.95;;
38435;SDS011;24220;48.168;14.024;2023-05-10T03:46:23;5.30;;;4.78;;
38435;SDS011;24220;48.168;14.024;2023-05-10T03:48:53;5.78;;;5.03;;
38435;SDS011;24220;48.168;14.024;2023-05-10T03:51:22;5.50;;;5.00;;
38435;SDS011;24220;48.168;14.024;2023-05-10T03:56:22;6.47;;;4.97;;
38435;SDS011;24220;48.168;14.024;2023-05-10T03:58:49;5.95;;;5.07;;
38435;SDS011;24220;48.168;14.024;2023-05-10T04:01:16;5.10;;;4.43;;
38435;SDS011;24220;48.168;14.024;2023-05-10T04:03:44;5.35;;;4.65;;
38435;SDS011;24220;48.168;14.024;2023-05-10T04:06:11;5.45;;;4.80;;
38435;SDS011;24220;48.168;14.024;2023-05-10T04:08:39;5.53;;;4.63;;
38435;SDS011;24220;48.168;14.024;2023-05-10T04:11:10;5.20;;;4.70;;
38435;SDS011;24220;48.168;14.024;2023-05-10T04:13:40;8.00;;;5.38;;
38435;SDS011;24220;48.168;14.024;2023-05-10T04:16:09;8.75;;;7.95;;
38435;SDS011;24220;48.168;14.024;2023-05-10T04:18:39;6.80;;;6.10;;
38435;SDS011;24220;48.168;14.024;2023-05-10T04:21:13;6.50;;;5.97;;
38435;SDS011;24220;48.168;14.024;2023-05-10T04:23:43;5.85;;;5.25;;
38435;SDS011;24220;48.168;14.024;2023-05-10T04:26:11;5.35;;;4.72;;
38435;SDS011;24220;48.168;14.024;2023-05-10T04:28:40;6.47;;;5.63;;
38435;SDS011;24220;48.168;14.024;2023-05-10T04:31:08;6.90;;;5.80;;
38435;SDS011;24220;48.168;14.024;2023-05-10T04:33:36;5.63;;;5.13;;
38435;SDS011;24220;48.168;14.024;2023-05-10T04:36:04;5.97;;;5.07;;
38435;SDS011;24220;48.168;14.024;2023-05-10T04:38:32;6.18;;;4.68;;
38435;SDS011;24220;48.168;14.024;2023-05-10T04:41:05;6.18;;;5.55;;
38435;SDS011;24220;48.168;14.024;2023-05-10T04:43:34;5.50;;;4.90;;
38435;SDS011;24220;48.168;14.024;2023-05-10T04:46:05;6.72;;;5.30;;
38435;SDS011;24220;48.168;14.024;2023-05-10T04:48:32;6.07;;;5.20;;
38435;SDS011;24220;48.168;14.024;2023-05-10T04:51:00;6.78;;;4.93;;
38435;SDS011;24220;48.168;14.024;2023-05-10T04:53:33;7.63;;;5.30;;
38435;SDS011;24220;48.168;14.024;2023-05-10T04:56:00;5.43;;;4.68;;
38435;SDS011;24220;48.168;14.024;2023-05-10T04:58:27;5.80;;;5.10;;
38435;SDS011;24220;48.168;14.024;2023-05-10T05:00:55;7.47;;;5.13;;
38435;SDS011;24220;48.168;14.024;2023-05-10T05:03:22;5.63;;;4.95;;
38435;SDS011;24220;48.168;14.024;2023-05-10T05:05:49;6.95;;;5.47;;
38435;SDS011;24220;48.168;14.024;2023-05-10T05:08:17;7.20;;;5.32;;
38435;SDS011;24220;48.168;14.024;2023-05-10T05:10:46;7.35;;;5.72;;
38435;SDS011;24220;48.168;14.024;2023-05-10T05:13:19;8.25;;;5.25;;
38435;SDS011;24220;48.168;14.024;2023-05-10T05:15:48;7.68;;;5.20;;
38435;SDS011;24220;48.168;14.024;2023-05-10T05:18:16;7.03;;;5.35;;
38435;SDS011;24220;48.168;14.024;2023-05-10T05:20:43;5.97;;;4.93;;
38435;SDS011;24220;48.168;14.024;2023-05-10T05:23:11;8.70;;;5.55;;
38435;SDS011;24220;48.168;14.024;2023-05-10T05:25:41;6.18;;;5.35;;
38435;SDS011;24220;48.168;14.024;2023-05-10T05:28:10;5.97;;;5.30;;
38435;SDS011;24220;48.168;14.024;2023-05-10T05:30:37;6.88;;;5.22;;
38435;SDS011;24220;48.168;14.024;2023-05-10T05:33:05;7.53;;;5.85;;
38435;SDS011;24220;48.168;14.024;2023-05-10T05:35:34;6.40;;;5.60;;
38435;SDS011;24220;48.168;14.024;2023-05-10T05:38:01;6.50;;;5.35;;
38435;SDS011;24220;48.168;14.024;2023-05-10T05:40:29;6.93;;;5.13;;
38435;SDS011;24220;48.168;14.024;2023-05-10T05:42:56;7.03;;;5.35;;
38435;SDS011;24220;48.168;14.024;2023-05-10T05:45:23;9.25;;;6.13;;
38435;SDS011;24220;48.168;14.024;2023-05-10T05:47:51;13.32;;;6.80;;
38435;SDS011;24220;48.168;14.024;2023-05-10T05:50:20;10.43;;;6.45;;
38435;SDS011;24220;48.168;14.024;2023-05-10T05:52:50;7.75;;;6.50;;
38435;SDS011;24220;48.168;14.024;2023-05-10T05:55:17;7.93;;;6.40;;
38435;SDS011;24220;48.168;14.024;2023-05-10T05:57:45;7.72;;;6.13;;
38435;SDS011;24220;48.168;14.024;2023-05-10T06:00:15;9.57;;;6.68;;
38435;SDS011;24220;48.168;14.024;2023-05-10T06:02:42;7.45;;;6.40;;
38435;SDS011;24220;48.168;14.024;2023-05-10T06:05:12;8.15;;;6.97;;
38435;SDS011;24220;48.168;14.024;2023-05-10T06:07:41;10.02;;;7.93;;
38435;SDS011;24220;48.168;14.024;2023-05-10T06:10:11;8.38;;;7.55;;
38435;SDS011;24220;48.168;14.024;2023-05-10T06:12:40;11.30;;;7.43;;
38435;SDS011;24220;48.168;14.024;2023-05-10T06:15:10;10.00;;;8.45;;
38435;SDS011;24220;48.168;14.024;2023-05-10T06:17:37;12.93;;;9.73;;
38435;SDS011;24220;48.168;14.024;2023-05-10T06:20:05;10.20;;;8.77;;
38435;SDS011;24220;48.168;14.024;2023-05-10T06:22:33;12.10;;;8.98;;
38435;SDS011;24220;48.168;14.024;2023-05-10T06:25:01;11.52;;;8.80;;
38435;SDS011;24220;48.168;14.024;2023-05-10T06:27:31;18.65;;;9.00;;
38435;SDS011;24220;48.168;14.024;2023-05-10T06:29:58;12.15;;;7.95;;
38435;SDS011;24220;48.168;14.024;2023-05-10T06:32:38;10.07;;;7.68;;
38435;SDS011;24220;48.168;14.024;2023-05-10T06:35:06;9.10;;;7.20;;
38435;SDS011;24220;48.168;14.024;2023-05-10T06:37:34;8.02;;;6.80;;
38435;SDS011;24220;48.168;14.024;2023-05-10T06:40:01;7.55;;;6.68;;
38435;SDS011;24220;48.168;14.024;2023-05-10T06:42:29;7.97;;;6.93;;
38435;SDS011;24220;48.168;14.024;2023-05-10T06:44:58;7.43;;;6.63;;
38435;SDS011;24220;48.168;14.024;2023-05-10T06:47:26;7.68;;;6.40;;
38435;SDS011;24220;48.168;14.024;2023-05-10T06:49:53;6.57;;;5.97;;
38435;SDS011;24220;48.168;14.024;2023-05-10T06:52:21;7.53;;;6.75;;
38435;SDS011;24220;48.168;14.024;2023-05-10T06:54:48;8.13;;;6.82;;
38435;SDS011;24220;48.168;14.024;2023-05-10T06:57:18;10.80;;;6.80;;
38435;SDS011;24220;48.168;14.024;2023-05-10T06:59:57;7.38;;;6.47;;
38435;SDS011;24220;48.168;14.024;2023-05-10T07:02:25;8.07;;;7.15;;
38435;SDS011;24220;48.168;14.024;2023-05-10T07:04:56;7.97;;;6.97;;
38435;SDS011;24220;48.168;14.024;2023-05-10T07:07:41;9.40;;;6.80;;
38435;SDS011;24220;48.168;14.024;2023-05-10T07:10:09;9.10;;;7.18;;
38435;SDS011;24220;48.168;14.024;2023-05-10T07:12:38;8.27;;;6.22;;
38435;SDS011;24220;48.168;14.024;2023-05-10T07:15:06;13.35;;;8.00;;
38435;SDS011;24220;48.168;14.024;2023-05-10T07:17:37;22.75;;;8.07;;
38435;SDS011;24220;48.168;14.024;2023-05-10T07:20:04;12.00;;;7.15;;
38435;SDS011;24220;48.168;14.024;2023-05-10T07:22:32;10.52;;;6.95;;
38435;SDS011;24220;48.168;14.024;2023-05-10T07:24:59;9.18;;;6.85;;
38435;SDS011;24220;48.168;14.024;2023-05-10T07:27:29;9.45;;;6.70;;
38435;SDS011;24220;48.168;14.024;2023-05-10T07:29:59;11.48;;;6.70;;
38435;SDS011;24220;48.168;14.024;2023-05-10T07:32:29;9.95;;;6.78;;
38435;SDS011;24220;48.168;14.024;2023-05-10T07:34:57;10.88;;;6.70;;
38435;SDS011;24220;48.168;14.024;2023-05-10T07:37:27;9.60;;;6.50;;
38435;SDS011;24220;48.168;14.024;2023-05-10T07:39:54;7.38;;;6.57;;
38435;SDS011;24220;48.168;14.024;2023-05-10T07:42:26;7.97;;;6.95;;
38435;SDS011;24220;48.168;14.024;2023-05-10T07:44:53;7.93;;;6.53;;
38435;SDS011;24220;48.168;14.024;2023-05-10T07:47:20;7.72;;;6.93;;
38435;SDS011;24220;48.168;14.024;2023-05-10T07:49:50;8.32;;;6.75;;
38435;SDS011;24220;48.168;14.024;2023-05-10T07:52:20;11.15;;;7.03;;
38435;SDS011;24220;48.168;14.024;2023-05-10T07:54:48;14.45;;;7.60;;
38435;SDS011;24220;48.168;14.024;2023-05-10T07:57:15;10.45;;;7.13;;
38435;SDS011;24220;48.168;14.024;2023-05-10T07:59:46;11.45;;;7.45;;
38435;SDS011;24220;48.168;14.024;2023-05-10T08:02:19;11.35;;;7.45;;
38435;SDS011;24220;48.168;14.024;2023-05-10T08:04:46;7.88;;;7.18;;
38435;SDS011;24220;48.168;14.024;2023-05-10T08:07:13;6.70;;;6.07;;
38435;SDS011;24220;48.168;14.024;2023-05-10T08:09:40;10.07;;;7.18;;
38435;SDS011;24220;48.168;14.024;2023-05-10T08:12:10;8.63;;;6.95;;
38435;SDS011;24220;48.168;14.024;2023-05-10T08:14:40;7.60;;;6.63;;
38435;SDS011;24220;48.168;14.024;2023-05-10T08:17:09;8.32;;;6.60;;
38435;SDS011;24220;48.168;14.024;2023-05-10T08:19:37;11.45;;;7.03;;
38435;SDS011;24220;48.168;14.024;2023-05-10T08:22:04;9.70;;;6.50;;
38435;SDS011;24220;48.168;14.024;2023-05-10T08:24:32;11.88;;;7.10;;
38435;SDS011;24220;48.168;14.024;2023-05-10T08:27:01;11.00;;;7.07;;
38435;SDS011;24220;48.168;14.024;2023-05-10T08:29:28;8.00;;;7.15;;
38435;SDS011;24220;48.168;14.024;2023-05-10T08:32:08;7.90;;;7.10;;
38435;SDS011;24220;48.168;14.024;2023-05-10T08:34:38;8.45;;;7.57;;
38435;SDS011;24220;48.168;14.024;2023-05-10T08:37:05;10.38;;;8.98;;
38435;SDS011;24220;48.168;14.024;2023-05-10T08:39:35;9.88;;;8.88;;
38435;SDS011;24220;48.168;14.024;2023-05-10T08:42:03;10.95;;;8.93;;
38435;SDS011;24220;48.168;14.024;2023-05-10T08:44:35;12.68;;;9.27;;
38435;SDS011;24220;48.168;14.024;2023-05-10T08:47:06;11.07;;;9.13;;
38435;SDS011;24220;48.168;14.024;2023-05-10T08:49:35;9.52;;;8.55;;
38435;SDS011;24220;48.168;14.024;2023-05-10T08:52:06;8.48;;;7.63;;
38435;SDS011;24220;48.168;14.024;2023-05-10T08:54:34;10.18;;;7.85;;
38435;SDS011;24220;48.168;14.024;2023-05-10T08:57:03;14.00;;;8.13;;
38435;SDS011;24220;48.168;14.024;2023-05-10T08:59:30;11.32;;;8.73;;
38435;SDS011;24220;48.168;14.024;2023-05-10T09:01:58;8.48;;;7.40;;
38435;SDS011;24220;48.168;14.024;2023-05-10T09:04:27;10.55;;;7.53;;
38435;SDS011;24220;48.168;14.024;2023-05-10T09:06:57;7.88;;;7.03;;
38435;SDS011;24220;48.168;14.024;2023-05-10T09:09:24;8.27;;;7.30;;
38435;SDS011;24220;48.168;14.024;2023-05-10T09:11:52;9.52;;;7.22;;
38435;SDS011;24220;48.168;14.024;2023-05-10T09:14:20;9.50;;;7.75;;
38435;SDS011;24220;48.168;14.024;2023-05-10T09:16:53;16.48;;;8.10;;
38435;SDS011;24220;48.168;14.024;2023-05-10T09:19:21;10.07;;;7.33;;
38435;SDS011;24220;48.168;14.024;2023-05-10T09:21:51;13.00;;;7.50;;
38435;SDS011;24220;48.168;14.024;2023-05-10T09:24:18;8.63;;;7.32;;
38435;SDS011;24220;48.168;14.024;2023-05-10T09:26:48;10.02;;;6.63;;
38435;SDS011;24220;48.168;14.024;2023-05-10T09:29:18;6.90;;;6.20;;
38435;SDS011;24220;48.168;14.024;2023-05-10T09:31:48;10.65;;;6.65;;
38435;SDS011;24220;48.168;14.024;2023-05-10T09:34:18;7.25;;;6.50;;
38435;SDS011;24220;48.168;14.024;2023-05-10T09:36:57;7.05;;;5.93;;
38435;SDS011;24220;48.168;14.024;2023-05-10T09:39:31;7.63;;;5.50;;
38435;SDS011;24220;48.168;14.024;2023-05-10T09:42:09;8.20;;;6.30;;
38435;SDS011;24220;48.168;14.024;2023-05-10T09:44:39;7.53;;;6.13;;
38435;SDS011;24220;48.168;14.024;2023-05-10T09:47:09;6.53;;;5.88;;
38435;SDS011;24220;48.168;14.024;2023-05-10T09:49:36;6.82;;;5.55;;
38435;SDS011;24220;48.168;14.024;2023-05-10T09:52:04;6.57;;;5.88;;
38435;SDS011;24220;48.168;14.024;2023-05-10T09:54:35;8.00;;;6.00;;
38435;SDS011;24220;48.168;14.024;2023-05-10T09:57:02;8.85;;;7.03;;
38435;SDS011;24220;48.168;14.024;2023-05-10T09:59:44;8.25;;;7.28;;
38435;SDS011;24220;48.168;14.024;2023-05-10T10:02:12;7.18;;;6.40;;
38435;SDS011;24220;48.168;14.024;2023-05-10T10:04:40;14.50;;;11.27;;
38435;SDS011;24220;48.168;14.024;2023-05-10T10:07:10;9.57;;;7.95;;
38435;SDS011;24220;48.168;14.024;2023-05-10T10:09:37;8.73;;;6.95;;
38435;SDS011;24220;48.168;14.024;2023-05-10T10:12:05;8.23;;;7.43;;
38435;SDS011;24220;48.168;14.024;2023-05-10T10:14:35;10.10;;;7.45;;
38435;SDS011;24220;48.168;14.024;2023-05-10T10:17:02;8.00;;;7.10;;
38435;SDS011;24220;48.168;14.024;2023-05-10T10:19:34;11.05;;;8.10;;
38435;SDS011;24220;48.168;14.024;2023-05-10T10:22:03;12.13;;;7.70;;
38435;SDS011;24220;48.168;14.024;2023-05-10T10:24:32;8.77;;;7.97;;
38435;SDS011;24220;48.168;14.024;2023-05-10T10:27:26;7.77;;;7.00;;
38435;SDS011;24220;48.168;14.024;2023-05-10T10:35:52;7.80;;;7.03;;
38435;SDS011;24220;48.168;14.024;2023-05-10T10:38:25;9.40;;;7.35;;
38435;SDS011;24220;48.168;14.024;2023-05-10T10:41:01;7.15;;;6.45;;
38435;SDS011;24220;48.168;14.024;2023-05-10T10:43:36;7.60;;;6.90;;
38435;SDS011;24220;48.168;14.024;2023-05-10T10:46:14;7.63;;;6.93;;
38435;SDS011;24220;48.168;14.024;2023-05-10T10:48:48;8.38;;;6.95;;
38435;SDS011;24220;48.168;14.024;2023-05-10T10:51:38;7.72;;;6.63;;
38435;SDS011;24220;48.168;14.024;2023-05-10T10:54:09;9.00;;;7.55;;
38435;SDS011;24220;48.168;14.024;2023-05-10T10:56:37;8.55;;;7.38;;
38435;SDS011;24220;48.168;14.024;2023-05-10T10:59:04;9.63;;;7.85;;
38435;SDS011;24220;48.168;14.024;2023-05-10T11:01:32;8.18;;;7.25;;
38435;SDS011;24220;48.168;14.024;2023-05-10T11:06:31;10.75;;;8.32;;
38435;SDS011;24220;48.168;14.024;2023-05-10T11:11:54;8.02;;;7.22;;
38435;SDS011;24220;48.168;14.024;2023-05-10T11:14:27;7.30;;;6.70;;
38435;SDS011;24220;48.168;14.024;2023-05-10T11:16:55;8.95;;;6.63;;
38435;SDS011;24220;48.168;14.024;2023-05-10T11:19:27;8.55;;;6.90;;
38435;SDS011;24220;48.168;14.024;2023-05-10T11:22:18;9.60;;;8.57;;
38435;SDS011;24220;48.168;14.024;2023-05-10T11:24:57;14.68;;;8.98;;
38435;SDS011;24220;48.168;14.024;2023-05-10T11:27:25;11.15;;;9.13;;
38435;SDS011;24220;48.168;14.024;2023-05-10T11:29:52;10.90;;;7.60;;
38435;SDS011;24220;48.168;14.024;2023-05-10T11:32:19;8.00;;;7.20;;
38435;SDS011;24220;48.168;14.024;2023-05-10T11:34:47;7.88;;;7.07;;
38435;SDS011;24220;48.168;14.024;2023-05-10T11:37:20;7.63;;;6.82;;
38435;SDS011;24220;48.168;14.024;2023-05-10T11:39:47;10.02;;;8.23;;
38435;SDS011;24220;48.168;14.024;2023-05-10T11:42:15;12.82;;;9.48;;
38435;SDS011;24220;48.168;14.024;2023-05-10T11:44:47;7.85;;;7.05;;
38435;SDS011;24220;48.168;14.024;2023-05-10T11:47:17;7.28;;;6.57;;
38435;SDS011;24220;48.168;14.024;2023-05-10T11:49:45;9.48;;;6.47;;
38435;SDS011;24220;48.168;14.024;2023-05-10T11:52:13;7.13;;;5.47;;
38435;SDS011;24220;48.168;14.024;2023-05-10T11:54:53;3.38;;;2.60;;
38435;SDS011;24220;48.168;14.024;2023-05-10T11:57:25;2.05;;;1.80;;
38435;SDS011;24220;48.168;14.024;2023-05-10T11:59:54;3.38;;;3.08;;
38435;SDS011;24220;48.168;14.024;2023-05-10T12:02:23;1.58;;;1.15;;
38435;SDS011;24220;48.168;14.024;2023-05-10T12:04:54;1.40;;;0.82;;
38435;SDS011;24220;48.168;14.024;2023-05-10T12:07:22;0.80;;;0.80;;
38435;SDS011;24220;48.168;14.024;2023-05-10T12:10:03;1.25;;;0.90;;
38435;SDS011;24220;48.168;14.024;2023-05-10T12:12:36;0.95;;;0.73;;
38435;SDS011;24220;48.168;14.024;2023-05-10T12:15:18;1.27;;;0.80;;
38435;SDS011;24220;48.168;14.024;2023-05-10T12:17:46;0.77;;;0.77;;
38435;SDS011;24220;48.168;14.024;2023-05-10T12:22:49;2.28;;;1.20;;
38435;SDS011;24220;48.168;14.024;2023-05-10T12:25:21;3.72;;;2.35;;
38435;SDS011;24220;48.168;14.024;2023-05-10T12:30:25;1.15;;;1.05;;
38435;SDS011;24220;48.168;14.024;2023-05-10T12:32:58;1.33;;;0.80;;
38435;SDS011;24220;48.168;14.024;2023-05-10T12:35:30;1.80;;;1.20;;
38435;SDS011;24220;48.168;14.024;2023-05-10T12:37:58;1.50;;;1.40;;
38435;SDS011;24220;48.168;14.024;2023-05-10T12:40:25;1.80;;;1.48;;
38435;SDS011;24220;48.168;14.024;2023-05-10T12:42:53;1.42;;;0.90;;
38435;SDS011;24220;48.168;14.024;2023-05-10T12:45:24;1.95;;;1.02;;
38435;SDS011;24220;48.168;14.024;2023-05-10T12:47:52;1.42;;;0.93;;
38435;SDS011;24220;48.168;14.024;2023-05-10T12:50:22;2.22;;;1.08;;
38435;SDS011;24220;48.168;14.024;2023-05-10T12:52:50;1.33;;;0.90;;
38435;SDS011;24220;48.168;14.024;2023-05-10T12:55:18;2.08;;;1.20;;
38435;SDS011;24220;48.168;14.024;2023-05-10T12:57:45;0.93;;;0.93;;
38435;SDS011;24220;48.168;14.024;2023-05-10T13:00:13;1.67;;;1.50;;
38435;SDS011;24220;48.168;14.024;2023-05-10T13:02:41;1.75;;;1.10;;
38435;SDS011;24220;48.168;14.024;2023-05-10T13:05:08;2.90;;;2.28;;
38435;SDS011;24220;48.168;14.024;2023-05-10T13:07:38;1.23;;;1.13;;
38435;SDS011;24220;48.168;14.024;2023-05-10T13:10:06;1.27;;;1.00;;
38435;SDS011;24220;48.168;14.024;2023-05-10T13:12:36;1.25;;;0.90;;
38435;SDS011;24220;48.168;14.024;2023-05-10T13:15:03;0.77;;;0.70;;
38435;SDS011;24220;48.168;14.024;2023-05-10T13:17:31;0.70;;;0.70;;
38435;SDS011;24220;48.168;14.024;2023-05-10T13:19:59;1.02;;;0.98;;
38435;SDS011;24220;48.168;14.024;2023-05-10T13:22:27;1.42;;;1.00;;
38435;SDS011;24220;48.168;14.024;2023-05-10T13:25:06;1.85;;;0.90;;
38435;SDS011;24220;48.168;14.024;2023-05-10T13:27:37;1.40;;;1.00;;
38435;SDS011;24220;48.168;14.024;2023-05-10T13:30:06;2.08;;;1.13;;
38435;SDS011;24220;48.168;14.024;2023-05-10T13:32:37;1.25;;;1.15;;
38435;SDS011;24220;48.168;14.024;2023-05-10T13:35:07;1.33;;;1.23;;
38435;SDS011;24220;48.168;14.024;2023-05-10T13:37:35;1.00;;;1.00;;
38435;SDS011;24220;48.168;14.024;2023-05-10T13:40:04;1.50;;;0.90;;
38435;SDS011;24220;48.168;14.024;2023-05-10T13:42:31;1.45;;;1.15;;
38435;SDS011;24220;48.168;14.024;2023-05-10T13:45:03;10.00;;;5.35;;
38435;SDS011;24220;48.168;14.024;2023-05-10T13:47:34;3.97;;;2.80;;
38435;SDS011;24220;48.168;14.024;2023-05-10T13:50:01;2.28;;;1.33;;
38435;SDS011;24220;48.168;14.024;2023-05-10T13:52:31;1.65;;;1.10;;
38435;SDS011;24220;48.168;14.024;2023-05-10T13:54:59;1.17;;;1.08;;
38435;SDS011;24220;48.168;14.024;2023-05-10T13:57:26;1.40;;;1.30;;
38435;SDS011;24220;48.168;14.024;2023-05-10T13:59:59;1.65;;;1.08;;
38435;SDS011;24220;48.168;14.024;2023-05-10T14:02:26;1.63;;;1.30;;
38435;SDS011;24220;48.168;14.024;2023-05-10T14:04:54;1.20;;;1.10;;
38435;SDS011;24220;48.168;14.024;2023-05-10T14:07:23;3.28;;;2.92;;
38435;SDS011;24220;48.168;14.024;2023-05-10T14:09:51;3.85;;;2.85;;
38435;SDS011;24220;48.168;14.024;2023-05-10T14:12:18;2.67;;;2.25;;
38435;SDS011;24220;48.168;14.024;2023-05-10T14:14:45;1.60;;;1.40;;
38435;SDS011;24220;48.168;14.024;2023-05-10T14:17:12;0.70;;;0.70;;
38435;SDS011;24220;48.168;14.024;2023-05-10T14:19:42;1.52;;;0.95;;
38435;SDS011;24220;48.168;14.024;2023-05-10T14:22:12;20.45;;;8.23;;
38435;SDS011;24220;48.168;14.024;2023-05-10T14:24:42;53.97;;;19.52;;
38435;SDS011;24220;48.168;14.024;2023-05-10T14:27:13;8.38;;;4.82;;
38435;SDS011;24220;48.168;14.024;2023-05-10T14:29:40;8.18;;;3.95;;
38435;SDS011;24220;48.168;14.024;2023-05-10T14:32:08;12.75;;;7.53;;
38435;SDS011;24220;48.168;14.024;2023-05-10T14:34:35;3.30;;;3.00;;
38435;SDS011;24220;48.168;14.024;2023-05-10T14:37:03;2.53;;;1.85;;
38435;SDS011;24220;48.168;14.024;2023-05-10T14:39:31;2.17;;;2.08;;
38435;SDS011;24220;48.168;14.024;2023-05-10T14:41:58;2.00;;;1.90;;
38435;SDS011;24220;48.168;14.024;2023-05-10T14:44:29;1.77;;;1.52;;
38435;SDS011;24220;48.168;14.024;2023-05-10T14:46:59;1.63;;;1.52;;
38435;SDS011;24220;48.168;14.024;2023-05-10T14:49:29;2.25;;;2.08;;
38435;SDS011;24220;48.168;14.024;2023-05-10T14:51:56;6.35;;;5.85;;
38435;SDS011;24220;48.168;14.024;2023-05-10T14:54:23;3.03;;;2.72;;
38435;SDS011;24220;48.168;14.024;2023-05-10T14:56:50;1.90;;;1.80;;
38435;SDS011;24220;48.168;14.024;2023-05-10T14:59:18;1.65;;;1.40;;
38435;SDS011;24220;48.168;14.024;2023-05-10T15:01:46;1.58;;;1.20;;
38435;SDS011;24220;48.168;14.024;2023-05-10T15:04:13;1.42;;;1.25;;
38435;SDS011;24220;48.168;14.024;2023-05-10T15:06:43;1.55;;;1.45;;
38435;SDS011;24220;48.168;14.024;2023-05-10T15:09:15;3.67;;;2.25;;
38435;SDS011;24220;48.168;14.024;2023-05-10T15:11:43;3.53;;;3.13;;
38435;SDS011;24220;48.168;14.024;2023-05-10T15:14:12;2.60;;;2.40;;
38435;SDS011;24220;48.168;14.024;2023-05-10T15:16:39;1.70;;;1.60;;
38435;SDS011;24220;48.168;14.024;2023-05-10T15:19:07;1.63;;;1.10;;
38435;SDS011;24220;48.168;14.024;2023-05-10T15:21:37;1.25;;;1.00;;